Terminal Aerodrome Forecast
Issued by NWS

Current Version | Previous Version | Graphics & Text | Print | Product List | Glossary On
Versions: 1 2 3 4 5 6 7 8 9 10 11 12 13 14 15 16 17 18 19 20 21 22 23 24 25
773
FTUS41 KILN 272055 AAA
TAFLUK
TAF AMD
KLUK 272055Z 2721/2818 20010KT P6SM SCT050
     FM280100 18003KT P6SM BKN250
     FM280600 00000KT 3SM BR BKN250
      TEMPO 2808/2812 1/2SM FG
     FM281300 18003KT P6SM BKN250
     FM281500 20008KT P6SM SCT040 BKN200=

USA.gov is the U.S. government's official web portal to all federal, state and local government web resources and services.